Terminal Aerodrome Forecast
Issued by NWS

Home | Current Version | Previous Version | Graphics & Text | Print | Product List | Glossary On
Versions: 1 2 3 4 5 6 7 8 9 10 11 12 13 14 15 16 17 18 19
000
FTUS43 KBIS 180500
TAFJMS
TAF
KJMS 180539Z 1806/1906 19005KT P6SM BKN120
     FM180800 23006KT P6SM SCT100
     FM181200 27007KT P6SM BKN100
     FM181500 30010KT P6SM VCTS FEW015 BKN040CB OVC080
     FM182000 33012G18KT P6SM VCTS BKN060CB OVC120
     FM190000 34005KT P6SM SCT100=

USA.gov is the U.S. government's official web portal to all federal, state and local government web resources and services.